Portada
METAR-TAF:

METAR-TAF

Aeroports :

Sussex Airport

Sussex, Nova Jersey, Estats Units d'Amèrica

latitud: 41-12-01N, longitud: 074-37-23W, altitud: 128 m

Observació

L'informe es va fer fa 21 minuts, a les 12:19 UTC
Vent 7 kt del Nord/Nord-Est
Temperatura 16°C
Humitat 100%
Pressió 1025 hPa
Visibilitat: 9.7 km
Cel cobert a una alçada de 600 ft
boirina

METAR: KFWN 221219Z AUTO 03007KT 6SM BR OVC006 16/16 A3028 RMK AO2 CIG 003V009 T01610156

Hora: 08:40 (12:40 UTC)


TAF: manca

Observacions i pronòstics meteorològics de més de 4000 aeroports (METAR i TAF).

Les estacions disponibles són els punts grocs i vermells al mapa.

Posi el ratolí al punt desitjat per veure el nom de l'estació.

Feu clic per veure les observacions i els pronòstics meteorològics.

Per canviar el mapa: feu clic els botons verds amb una creu de color negre per apropar; al botó verd amb un guió per allunyar la imatge; o en les fletxes verdes per a mapes adjacents.


METAR-TAF: